Terminal Aerodrome Forecast
Issued by NWS

Current Version | Previous Version | Graphics & Text | Print | Product List | Glossary On
Versions: 1 2 3 4 5 6 7 8 9 10 11 12 13 14 15 16 17 18 19 20 21 22
000
FTUS41 KRLX 251120
TAFCKB
TAF
KCKB 251120Z 2512/2612 VRB03KT P6SM SCT250
     FM251600 21007KT P6SM SCT120
     FM260000 18005KT P6SM SCT060
     FM260500 18004KT P6SM BKN050=

USA.gov is the U.S. government's official web portal to all federal, state and local government web resources and services.